sensor_id;sensor_type;location;lat;lon;timestamp;temperature;humidity
46117;DHT22;32591;48.102;11.772;2024-03-02T00:01:32;7.30;99.90
46117;DHT22;32591;48.102;11.772;2024-03-02T00:04:03;7.30;99.90
46117;DHT22;32591;48.102;11.772;2024-03-02T00:06:34;7.30;99.90
46117;DHT22;32591;48.102;11.772;2024-03-02T00:09:02;7.30;99.90
46117;DHT22;32591;48.102;11.772;2024-03-02T00:11:36;7.30;99.90
46117;DHT22;32591;48.102;11.772;2024-03-02T00:14:04;7.30;99.90
46117;DHT22;32591;48.102;11.772;2024-03-02T00:16:32;7.30;99.90
46117;DHT22;32591;48.102;11.772;2024-03-02T00:19:02;7.30;99.90
46117;DHT22;32591;48.102;11.772;2024-03-02T00:21:31;7.30;99.90
46117;DHT22;32591;48.102;11.772;2024-03-02T00:24:00;7.30;99.90
46117;DHT22;32591;48.102;11.772;2024-03-02T00:26:29;7.20;99.90
46117;DHT22;32591;48.102;11.772;2024-03-02T00:28:59;7.20;99.90
46117;DHT22;32591;48.102;11.772;2024-03-02T00:31:27;7.20;99.90
46117;DHT22;32591;48.102;11.772;2024-03-02T00:33:56;7.20;99.90
46117;DHT22;32591;48.102;11.772;2024-03-02T00:36:27;7.20;99.90
46117;DHT22;32591;48.102;11.772;2024-03-02T00:38:55;7.30;99.90
46117;DHT22;32591;48.102;11.772;2024-03-02T00:41:25;7.20;99.90
46117;DHT22;32591;48.102;11.772;2024-03-02T00:43:59;7.20;99.90
46117;DHT22;32591;48.102;11.772;2024-03-02T00:46:29;7.20;99.90
46117;DHT22;32591;48.102;11.772;2024-03-02T00:49:00;7.10;99.90
46117;DHT22;32591;48.102;11.772;2024-03-02T00:51:31;7.20;99.90
46117;DHT22;32591;48.102;11.772;2024-03-02T00:54:01;7.00;99.90
46117;DHT22;32591;48.102;11.772;2024-03-02T00:56:32;7.10;99.90
46117;DHT22;32591;48.102;11.772;2024-03-02T00:59:03;7.00;99.90
46117;DHT22;32591;48.102;11.772;2024-03-02T01:01:32;7.00;99.90
46117;DHT22;32591;48.102;11.772;2024-03-02T01:04:01;7.10;99.90
46117;DHT22;32591;48.102;11.772;2024-03-02T01:06:29;7.10;99.90
46117;DHT22;32591;48.102;11.772;2024-03-02T01:08:58;7.20;99.90
46117;DHT22;32591;48.102;11.772;2024-03-02T01:11:26;7.20;99.90
46117;DHT22;32591;48.102;11.772;2024-03-02T01:13:54;7.20;99.90
46117;DHT22;32591;48.102;11.772;2024-03-02T01:16:24;7.20;99.90
46117;DHT22;32591;48.102;11.772;2024-03-02T01:18:52;7.20;99.90
46117;DHT22;32591;48.102;11.772;2024-03-02T01:21:20;7.20;99.90
46117;DHT22;32591;48.102;11.772;2024-03-02T01:23:48;7.20;99.90
46117;DHT22;32591;48.102;11.772;2024-03-02T01:26:17;7.20;99.90
46117;DHT22;32591;48.102;11.772;2024-03-02T01:28:45;7.20;99.90
46117;DHT22;32591;48.102;11.772;2024-03-02T01:31:13;7.30;99.90
46117;DHT22;32591;48.102;11.772;2024-03-02T01:33:42;7.30;99.90
46117;DHT22;32591;48.102;11.772;2024-03-02T01:36:10;7.30;99.90
46117;DHT22;32591;48.102;11.772;2024-03-02T01:38:38;7.30;99.90
46117;DHT22;32591;48.102;11.772;2024-03-02T01:41:07;7.30;99.90
46117;DHT22;32591;48.102;11.772;2024-03-02T01:43:35;7.30;99.90
46117;DHT22;32591;48.102;11.772;2024-03-02T01:46:07;7.30;99.90
46117;DHT22;32591;48.102;11.772;2024-03-02T01:48:36;7.30;99.90
46117;DHT22;32591;48.102;11.772;2024-03-02T01:51:06;7.20;99.90
46117;DHT22;32591;48.102;11.772;2024-03-02T01:53:35;7.20;99.90
46117;DHT22;32591;48.102;11.772;2024-03-02T01:56:06;7.20;99.90
46117;DHT22;32591;48.102;11.772;2024-03-02T01:58:38;7.20;99.90
46117;DHT22;32591;48.102;11.772;2024-03-02T02:01:06;7.10;99.90
46117;DHT22;32591;48.102;11.772;2024-03-02T02:03:34;7.10;99.90
46117;DHT22;32591;48.102;11.772;2024-03-02T02:06:05;7.10;99.90
46117;DHT22;32591;48.102;11.772;2024-03-02T02:08:33;7.10;99.90
46117;DHT22;32591;48.102;11.772;2024-03-02T02:11:02;7.10;99.90
46117;DHT22;32591;48.102;11.772;2024-03-02T02:13:30;7.10;99.90
46117;DHT22;32591;48.102;11.772;2024-03-02T02:16:04;7.10;99.90
46117;DHT22;32591;48.102;11.772;2024-03-02T02:18:33;7.10;99.90
46117;DHT22;32591;48.102;11.772;2024-03-02T02:21:04;7.10;99.90
46117;DHT22;32591;48.102;11.772;2024-03-02T02:23:33;7.10;99.90
46117;DHT22;32591;48.102;11.772;2024-03-02T02:26:02;7.20;99.90
46117;DHT22;32591;48.102;11.772;2024-03-02T02:28:30;7.20;99.90
46117;DHT22;32591;48.102;11.772;2024-03-02T02:30:58;7.20;99.90
46117;DHT22;32591;48.102;11.772;2024-03-02T02:33:28;7.20;99.90
46117;DHT22;32591;48.102;11.772;2024-03-02T02:35:56;7.20;99.90
46117;DHT22;32591;48.102;11.772;2024-03-02T02:38:24;7.20;99.90
46117;DHT22;32591;48.102;11.772;2024-03-02T02:40:54;7.20;99.90
46117;DHT22;32591;48.102;11.772;2024-03-02T02:43:22;7.30;99.90
46117;DHT22;32591;48.102;11.772;2024-03-02T02:45:50;7.20;99.90
46117;DHT22;32591;48.102;11.772;2024-03-02T02:48:18;7.20;99.90
46117;DHT22;32591;48.102;11.772;2024-03-02T02:50:47;7.20;99.90
46117;DHT22;32591;48.102;11.772;2024-03-02T02:53:15;7.20;99.90
46117;DHT22;32591;48.102;11.772;2024-03-02T02:55:43;7.20;99.90
46117;DHT22;32591;48.102;11.772;2024-03-02T02:58:12;7.20;99.90
46117;DHT22;32591;48.102;11.772;2024-03-02T03:00:41;7.20;99.90
46117;DHT22;32591;48.102;11.772;2024-03-02T03:03:12;7.20;99.90
46117;DHT22;32591;48.102;11.772;2024-03-02T03:05:41;7.10;99.90
46117;DHT22;32591;48.102;11.772;2024-03-02T03:08:09;7.20;99.90
46117;DHT22;32591;48.102;11.772;2024-03-02T03:10:37;7.20;99.90
46117;DHT22;32591;48.102;11.772;2024-03-02T03:13:05;7.10;99.90
46117;DHT22;32591;48.102;11.772;2024-03-02T03:15:36;7.10;99.90
46117;DHT22;32591;48.102;11.772;2024-03-02T03:18:05;7.10;99.90
46117;DHT22;32591;48.102;11.772;2024-03-02T03:20:34;7.10;99.90
46117;DHT22;32591;48.102;11.772;2024-03-02T03:23:02;7.10;99.90
46117;DHT22;32591;48.102;11.772;2024-03-02T03:25:31;7.10;99.90
46117;DHT22;32591;48.102;11.772;2024-03-02T03:28:00;7.20;99.90
46117;DHT22;32591;48.102;11.772;2024-03-02T03:30:30;7.20;99.90
46117;DHT22;32591;48.102;11.772;2024-03-02T03:32:59;7.20;99.90
46117;DHT22;32591;48.102;11.772;2024-03-02T03:35:27;7.10;99.90
46117;DHT22;32591;48.102;11.772;2024-03-02T03:37:55;7.20;99.90
46117;DHT22;32591;48.102;11.772;2024-03-02T03:40:23;7.10;99.90
46117;DHT22;32591;48.102;11.772;2024-03-02T03:42:51;7.10;99.90
46117;DHT22;32591;48.102;11.772;2024-03-02T03:45:20;7.10;99.90
46117;DHT22;32591;48.102;11.772;2024-03-02T03:47:48;7.10;99.90
46117;DHT22;32591;48.102;11.772;2024-03-02T03:50:17;7.10;99.90
46117;DHT22;32591;48.102;11.772;2024-03-02T03:52:46;7.10;99.90
46117;DHT22;32591;48.102;11.772;2024-03-02T03:55:14;7.10;99.90
46117;DHT22;32591;48.102;11.772;2024-03-02T03:57:42;7.10;99.90
46117;DHT22;32591;48.102;11.772;2024-03-02T04:00:11;7.10;99.90
46117;DHT22;32591;48.102;11.772;2024-03-02T04:02:40;7.10;99.90
46117;DHT22;32591;48.102;11.772;2024-03-02T04:05:08;7.10;99.90
46117;DHT22;32591;48.102;11.772;2024-03-02T04:07:39;7.10;99.90
46117;DHT22;32591;48.102;11.772;2024-03-02T04:10:09;7.10;99.90
46117;DHT22;32591;48.102;11.772;2024-03-02T04:12:39;7.10;99.90
46117;DHT22;32591;48.102;11.772;2024-03-02T04:15:08;7.10;99.90
46117;DHT22;32591;48.102;11.772;2024-03-02T04:17:36;7.10;99.90
46117;DHT22;32591;48.102;11.772;2024-03-02T04:20:05;7.10;99.90
46117;DHT22;32591;48.102;11.772;2024-03-02T04:22:34;7.10;99.90
46117;DHT22;32591;48.102;11.772;2024-03-02T04:25:04;7.10;99.90
46117;DHT22;32591;48.102;11.772;2024-03-02T04:27:34;7.20;99.90
46117;DHT22;32591;48.102;11.772;2024-03-02T04:30:03;7.20;99.90
46117;DHT22;32591;48.102;11.772;2024-03-02T04:32:33;7.20;99.90
46117;DHT22;32591;48.102;11.772;2024-03-02T04:35:03;7.20;99.90
46117;DHT22;32591;48.102;11.772;2024-03-02T04:37:33;7.20;99.90
46117;DHT22;32591;48.102;11.772;2024-03-02T04:40:05;7.20;99.90
46117;DHT22;32591;48.102;11.772;2024-03-02T04:42:36;7.20;99.90
46117;DHT22;32591;48.102;11.772;2024-03-02T04:45:05;7.20;99.90
46117;DHT22;32591;48.102;11.772;2024-03-02T04:47:33;7.20;99.90
46117;DHT22;32591;48.102;11.772;2024-03-02T04:50:02;7.20;99.90
46117;DHT22;32591;48.102;11.772;2024-03-02T04:52:30;7.20;99.90
46117;DHT22;32591;48.102;11.772;2024-03-02T04:54:58;7.20;99.90
46117;DHT22;32591;48.102;11.772;2024-03-02T04:57:53;7.20;99.90
46117;DHT22;32591;48.102;11.772;2024-03-02T05:00:21;7.10;99.90
46117;DHT22;32591;48.102;11.772;2024-03-02T05:02:50;7.10;99.90
46117;DHT22;32591;48.102;11.772;2024-03-02T05:05:18;6.90;99.90
46117;DHT22;32591;48.102;11.772;2024-03-02T05:07:46;6.90;99.90
46117;DHT22;32591;48.102;11.772;2024-03-02T05:10:14;6.90;99.90
46117;DHT22;32591;48.102;11.772;2024-03-02T05:12:42;6.90;99.90
46117;DHT22;32591;48.102;11.772;2024-03-02T05:15:28;6.80;99.90
46117;DHT22;32591;48.102;11.772;2024-03-02T05:17:56;6.80;99.90
46117;DHT22;32591;48.102;11.772;2024-03-02T05:20:26;6.80;99.90
46117;DHT22;32591;48.102;11.772;2024-03-02T05:22:54;6.80;99.90
46117;DHT22;32591;48.102;11.772;2024-03-02T05:25:22;6.70;99.90
46117;DHT22;32591;48.102;11.772;2024-03-02T05:27:50;6.70;99.90
46117;DHT22;32591;48.102;11.772;2024-03-02T05:30:18;6.70;99.90
46117;DHT22;32591;48.102;11.772;2024-03-02T05:32:48;6.80;99.90
46117;DHT22;32591;48.102;11.772;2024-03-02T05:35:16;6.80;99.90
46117;DHT22;32591;48.102;11.772;2024-03-02T05:37:45;6.90;99.90
46117;DHT22;32591;48.102;11.772;2024-03-02T05:40:13;6.90;99.90
46117;DHT22;32591;48.102;11.772;2024-03-02T05:42:42;7.00;99.90
46117;DHT22;32591;48.102;11.772;2024-03-02T05:45:11;7.00;99.90
46117;DHT22;32591;48.102;11.772;2024-03-02T05:47:39;7.10;99.90
46117;DHT22;32591;48.102;11.772;2024-03-02T05:50:09;7.10;99.90
46117;DHT22;32591;48.102;11.772;2024-03-02T05:52:37;7.10;99.90
46117;DHT22;32591;48.102;11.772;2024-03-02T05:55:06;7.10;99.90
46117;DHT22;32591;48.102;11.772;2024-03-02T05:57:34;6.90;99.90
46117;DHT22;32591;48.102;11.772;2024-03-02T06:00:16;6.80;99.90
46117;DHT22;32591;48.102;11.772;2024-03-02T06:02:45;6.80;99.90
46117;DHT22;32591;48.102;11.772;2024-03-02T06:05:15;6.80;99.90
46117;DHT22;32591;48.102;11.772;2024-03-02T06:07:43;6.90;99.90
46117;DHT22;32591;48.102;11.772;2024-03-02T06:10:12;7.00;99.90
46117;DHT22;32591;48.102;11.772;2024-03-02T06:12:41;7.00;99.90
46117;DHT22;32591;48.102;11.772;2024-03-02T06:15:09;7.00;99.90
46117;DHT22;32591;48.102;11.772;2024-03-02T06:17:38;7.00;99.90
46117;DHT22;32591;48.102;11.772;2024-03-02T06:20:07;7.10;99.90
46117;DHT22;32591;48.102;11.772;2024-03-02T06:22:37;7.10;99.90
46117;DHT22;32591;48.102;11.772;2024-03-02T06:25:06;7.10;99.90
46117;DHT22;32591;48.102;11.772;2024-03-02T06:27:35;7.20;99.90
46117;DHT22;32591;48.102;11.772;2024-03-02T06:30:04;7.20;99.90
46117;DHT22;32591;48.102;11.772;2024-03-02T06:32:32;7.20;99.90
46117;DHT22;32591;48.102;11.772;2024-03-02T06:35:01;7.30;99.90
46117;DHT22;32591;48.102;11.772;2024-03-02T06:37:30;7.20;99.90
46117;DHT22;32591;48.102;11.772;2024-03-02T06:40:00;7.20;99.90
46117;DHT22;32591;48.102;11.772;2024-03-02T06:42:28;7.30;99.90
46117;DHT22;32591;48.102;11.772;2024-03-02T06:45:00;7.30;99.90
46117;DHT22;32591;48.102;11.772;2024-03-02T06:47:29;7.30;99.90
46117;DHT22;32591;48.102;11.772;2024-03-02T06:49:58;7.20;99.90
46117;DHT22;32591;48.102;11.772;2024-03-02T06:52:26;7.30;99.90
46117;DHT22;32591;48.102;11.772;2024-03-02T06:54:54;7.20;99.90
46117;DHT22;32591;48.102;11.772;2024-03-02T06:57:24;7.20;99.90
46117;DHT22;32591;48.102;11.772;2024-03-02T06:59:52;7.30;99.90
46117;DHT22;32591;48.102;11.772;2024-03-02T07:02:21;7.30;99.90
46117;DHT22;32591;48.102;11.772;2024-03-02T07:04:50;7.30;99.90
46117;DHT22;32591;48.102;11.772;2024-03-02T07:07:18;7.40;99.90
46117;DHT22;32591;48.102;11.772;2024-03-02T07:09:47;7.40;99.90
46117;DHT22;32591;48.102;11.772;2024-03-02T07:12:15;7.40;99.90
46117;DHT22;32591;48.102;11.772;2024-03-02T07:14:45;7.40;99.90
46117;DHT22;32591;48.102;11.772;2024-03-02T07:17:37;7.40;99.90
46117;DHT22;32591;48.102;11.772;2024-03-02T07:20:06;7.50;99.90
46117;DHT22;32591;48.102;11.772;2024-03-02T07:22:35;7.50;99.90
46117;DHT22;32591;48.102;11.772;2024-03-02T07:25:07;7.60;99.90
46117;DHT22;32591;48.102;11.772;2024-03-02T07:27:55;7.60;99.90
46117;DHT22;32591;48.102;11.772;2024-03-02T07:30:25;7.60;99.90
46117;DHT22;32591;48.102;11.772;2024-03-02T07:32:53;7.60;99.90
46117;DHT22;32591;48.102;11.772;2024-03-02T07:35:21;7.60;99.90
46117;DHT22;32591;48.102;11.772;2024-03-02T07:37:53;7.70;99.90
46117;DHT22;32591;48.102;11.772;2024-03-02T07:40:22;7.70;99.90
46117;DHT22;32591;48.102;11.772;2024-03-02T07:42:50;7.80;99.90
46117;DHT22;32591;48.102;11.772;2024-03-02T07:45:18;7.80;99.90
46117;DHT22;32591;48.102;11.772;2024-03-02T07:47:48;7.90;99.90
46117;DHT22;32591;48.102;11.772;2024-03-02T07:50:16;7.90;99.90
46117;DHT22;32591;48.102;11.772;2024-03-02T07:52:44;7.80;99.90
46117;DHT22;32591;48.102;11.772;2024-03-02T07:55:13;7.80;99.90
46117;DHT22;32591;48.102;11.772;2024-03-02T07:57:41;7.80;99.90
46117;DHT22;32591;48.102;11.772;2024-03-02T08:00:10;7.90;99.90
46117;DHT22;32591;48.102;11.772;2024-03-02T08:02:41;7.90;99.90
46117;DHT22;32591;48.102;11.772;2024-03-02T08:05:11;8.00;99.90
46117;DHT22;32591;48.102;11.772;2024-03-02T08:07:39;8.00;99.90
46117;DHT22;32591;48.102;11.772;2024-03-02T08:10:08;8.10;99.90
46117;DHT22;32591;48.102;11.772;2024-03-02T08:12:37;8.10;99.90
46117;DHT22;32591;48.102;11.772;2024-03-02T08:15:06;8.10;99.90
46117;DHT22;32591;48.102;11.772;2024-03-02T08:17:34;8.20;99.90
46117;DHT22;32591;48.102;11.772;2024-03-02T08:20:05;8.20;99.90
46117;DHT22;32591;48.102;11.772;2024-03-02T08:22:36;8.20;99.90
46117;DHT22;32591;48.102;11.772;2024-03-02T08:25:05;8.20;99.90
46117;DHT22;32591;48.102;11.772;2024-03-02T08:27:33;8.20;99.90
46117;DHT22;32591;48.102;11.772;2024-03-02T08:30:03;8.20;99.90
46117;DHT22;32591;48.102;11.772;2024-03-02T08:32:34;8.20;99.90
46117;DHT22;32591;48.102;11.772;2024-03-02T08:35:02;8.10;99.90
46117;DHT22;32591;48.102;11.772;2024-03-02T08:37:31;8.20;99.90
46117;DHT22;32591;48.102;11.772;2024-03-02T08:40:01;8.20;99.90
46117;DHT22;32591;48.102;11.772;2024-03-02T08:42:34;8.30;99.90
46117;DHT22;32591;48.102;11.772;2024-03-02T08:45:02;8.40;99.90
46117;DHT22;32591;48.102;11.772;2024-03-02T08:47:31;8.40;99.90
46117;DHT22;32591;48.102;11.772;2024-03-02T08:49:59;8.30;99.90
46117;DHT22;32591;48.102;11.772;2024-03-02T08:52:28;8.40;99.90
46117;DHT22;32591;48.102;11.772;2024-03-02T08:54:56;8.50;99.90
46117;DHT22;32591;48.102;11.772;2024-03-02T08:57:26;8.60;99.90
46117;DHT22;32591;48.102;11.772;2024-03-02T08:59:54;8.70;99.90
46117;DHT22;32591;48.102;11.772;2024-03-02T09:02:22;8.70;99.90
46117;DHT22;32591;48.102;11.772;2024-03-02T09:04:51;9.40;99.90
46117;DHT22;32591;48.102;11.772;2024-03-02T09:07:19;9.40;99.90
46117;DHT22;32591;48.102;11.772;2024-03-02T09:09:48;9.20;99.90
46117;DHT22;32591;48.102;11.772;2024-03-02T09:12:16;9.00;99.90
46117;DHT22;32591;48.102;11.772;2024-03-02T09:14:46;9.00;99.90
46117;DHT22;32591;48.102;11.772;2024-03-02T09:17:14;9.10;99.90
46117;DHT22;32591;48.102;11.772;2024-03-02T09:19:42;9.20;99.90
46117;DHT22;32591;48.102;11.772;2024-03-02T09:22:10;9.30;99.90
46117;DHT22;32591;48.102;11.772;2024-03-02T09:24:38;9.40;99.90
46117;DHT22;32591;48.102;11.772;2024-03-02T09:27:06;9.60;99.90
46117;DHT22;32591;48.102;11.772;2024-03-02T09:29:34;9.60;99.90
46117;DHT22;32591;48.102;11.772;2024-03-02T09:32:06;9.70;99.90
46117;DHT22;32591;48.102;11.772;2024-03-02T09:34:34;9.80;99.90
46117;DHT22;32591;48.102;11.772;2024-03-02T09:37:03;9.90;99.90
46117;DHT22;32591;48.102;11.772;2024-03-02T09:39:31;10.10;99.90
46117;DHT22;32591;48.102;11.772;2024-03-02T09:42:00;10.30;99.90
46117;DHT22;32591;48.102;11.772;2024-03-02T09:44:28;10.30;99.90
46117;DHT22;32591;48.102;11.772;2024-03-02T09:46:57;10.50;99.90
46117;DHT22;32591;48.102;11.772;2024-03-02T09:49:26;10.70;99.90
46117;DHT22;32591;48.102;11.772;2024-03-02T09:51:54;10.80;99.90
46117;DHT22;32591;48.102;11.772;2024-03-02T09:54:22;10.90;99.90
46117;DHT22;32591;48.102;11.772;2024-03-02T09:56:51;10.80;99.90
46117;DHT22;32591;48.102;11.772;2024-03-02T09:59:19;11.00;99.90
46117;DHT22;32591;48.102;11.772;2024-03-02T10:02:05;11.10;99.90
46117;DHT22;32591;48.102;11.772;2024-03-02T10:04:35;11.30;99.90
46117;DHT22;32591;48.102;11.772;2024-03-02T10:07:11;11.40;99.90
46117;DHT22;32591;48.102;11.772;2024-03-02T10:09:39;11.30;99.90
46117;DHT22;32591;48.102;11.772;2024-03-02T10:12:09;11.30;99.90
46117;DHT22;32591;48.102;11.772;2024-03-02T10:14:39;11.20;99.90
46117;DHT22;32591;48.102;11.772;2024-03-02T10:17:08;11.30;99.90
46117;DHT22;32591;48.102;11.772;2024-03-02T10:19:40;11.40;99.90
46117;DHT22;32591;48.102;11.772;2024-03-02T10:22:10;11.40;99.90
46117;DHT22;32591;48.102;11.772;2024-03-02T10:24:39;11.50;99.90
46117;DHT22;32591;48.102;11.772;2024-03-02T10:27:10;11.50;99.90
46117;DHT22;32591;48.102;11.772;2024-03-02T10:29:39;11.40;99.90
46117;DHT22;32591;48.102;11.772;2024-03-02T10:32:11;11.60;99.90
46117;DHT22;32591;48.102;11.772;2024-03-02T10:34:42;11.70;99.90
46117;DHT22;32591;48.102;11.772;2024-03-02T10:37:11;12.00;99.90
46117;DHT22;32591;48.102;11.772;2024-03-02T10:39:40;12.00;99.90
46117;DHT22;32591;48.102;11.772;2024-03-02T10:42:09;12.10;99.90
46117;DHT22;32591;48.102;11.772;2024-03-02T10:44:37;12.20;99.90
46117;DHT22;32591;48.102;11.772;2024-03-02T10:47:06;12.40;99.90
46117;DHT22;32591;48.102;11.772;2024-03-02T10:49:34;12.40;99.90
46117;DHT22;32591;48.102;11.772;2024-03-02T10:52:04;12.50;99.90
46117;DHT22;32591;48.102;11.772;2024-03-02T10:54:32;12.60;99.90
46117;DHT22;32591;48.102;11.772;2024-03-02T10:57:07;12.70;99.90
46117;DHT22;32591;48.102;11.772;2024-03-02T10:59:37;12.70;99.90
46117;DHT22;32591;48.102;11.772;2024-03-02T11:02:12;12.80;99.90
46117;DHT22;32591;48.102;11.772;2024-03-02T11:04:42;12.80;99.90
46117;DHT22;32591;48.102;11.772;2024-03-02T11:07:12;12.90;99.90
46117;DHT22;32591;48.102;11.772;2024-03-02T11:09:42;13.00;99.90
46117;DHT22;32591;48.102;11.772;2024-03-02T11:12:23;13.10;99.90
46117;DHT22;32591;48.102;11.772;2024-03-02T11:14:55;13.20;99.90
46117;DHT22;32591;48.102;11.772;2024-03-02T11:17:25;13.30;99.90
46117;DHT22;32591;48.102;11.772;2024-03-02T11:19:54;13.30;99.90
46117;DHT22;32591;48.102;11.772;2024-03-02T11:22:23;13.30;99.90
46117;DHT22;32591;48.102;11.772;2024-03-02T11:24:52;13.10;99.90
46117;DHT22;32591;48.102;11.772;2024-03-02T11:30:49;13.10;99.90
46117;DHT22;32591;48.102;11.772;2024-03-02T11:33:25;13.10;99.90
46117;DHT22;32591;48.102;11.772;2024-03-02T11:35:57;13.10;99.90
46117;DHT22;32591;48.102;11.772;2024-03-02T11:38:35;13.10;99.90
46117;DHT22;32591;48.102;11.772;2024-03-02T11:41:06;13.20;99.90
46117;DHT22;32591;48.102;11.772;2024-03-02T11:43:37;13.20;99.90
46117;DHT22;32591;48.102;11.772;2024-03-02T11:46:07;13.40;99.90
46117;DHT22;32591;48.102;11.772;2024-03-02T11:48:36;13.50;99.90
46117;DHT22;32591;48.102;11.772;2024-03-02T11:51:05;13.50;99.90
46117;DHT22;32591;48.102;11.772;2024-03-02T11:53:35;13.60;99.90
46117;DHT22;32591;48.102;11.772;2024-03-02T11:56:06;13.60;99.90
46117;DHT22;32591;48.102;11.772;2024-03-02T11:58:39;13.70;99.90
46117;DHT22;32591;48.102;11.772;2024-03-02T12:01:08;13.80;99.90
46117;DHT22;32591;48.102;11.772;2024-03-02T12:03:36;13.60;99.90
46117;DHT22;32591;48.102;11.772;2024-03-02T12:06:06;13.40;99.90
46117;DHT22;32591;48.102;11.772;2024-03-02T12:08:36;13.20;99.90
46117;DHT22;32591;48.102;11.772;2024-03-02T12:11:04;13.10;99.90
46117;DHT22;32591;48.102;11.772;2024-03-02T12:13:33;13.00;99.90
46117;DHT22;32591;48.102;11.772;2024-03-02T12:16:02;13.00;99.90
46117;DHT22;32591;48.102;11.772;2024-03-02T12:18:30;13.00;99.90
46117;DHT22;32591;48.102;11.772;2024-03-02T12:20:59;13.20;99.90
46117;DHT22;32591;48.102;11.772;2024-03-02T12:23:29;13.40;99.90
46117;DHT22;32591;48.102;11.772;2024-03-02T12:25:58;13.60;99.90
46117;DHT22;32591;48.102;11.772;2024-03-02T12:28:27;13.70;99.90
46117;DHT22;32591;48.102;11.772;2024-03-02T12:30:58;13.70;99.90
46117;DHT22;32591;48.102;11.772;2024-03-02T12:33:26;13.80;99.90
46117;DHT22;32591;48.102;11.772;2024-03-02T12:35:57;13.90;99.90
46117;DHT22;32591;48.102;11.772;2024-03-02T12:38:25;13.90;99.90
46117;DHT22;32591;48.102;11.772;2024-03-02T12:41:05;14.10;99.90
46117;DHT22;32591;48.102;11.772;2024-03-02T12:43:33;14.20;99.90
46117;DHT22;32591;48.102;11.772;2024-03-02T12:46:02;14.40;99.90
46117;DHT22;32591;48.102;11.772;2024-03-02T12:48:32;14.40;99.90
46117;DHT22;32591;48.102;11.772;2024-03-02T12:51:01;14.30;99.90
46117;DHT22;32591;48.102;11.772;2024-03-02T12:53:29;14.20;99.90
46117;DHT22;32591;48.102;11.772;2024-03-02T12:55:57;14.20;99.90
46117;DHT22;32591;48.102;11.772;2024-03-02T12:58:26;14.10;99.90
46117;DHT22;32591;48.102;11.772;2024-03-02T13:01:06;14.30;99.90
46117;DHT22;32591;48.102;11.772;2024-03-02T13:03:36;14.40;99.90
46117;DHT22;32591;48.102;11.772;2024-03-02T13:06:06;14.40;99.90
46117;DHT22;32591;48.102;11.772;2024-03-02T13:08:35;14.40;99.90
46117;DHT22;32591;48.102;11.772;2024-03-02T13:11:03;14.20;99.90
46117;DHT22;32591;48.102;11.772;2024-03-02T13:13:34;14.10;99.90
46117;DHT22;32591;48.102;11.772;2024-03-02T13:16:04;14.20;99.90
46117;DHT22;32591;48.102;11.772;2024-03-02T13:18:36;14.30;99.90
46117;DHT22;32591;48.102;11.772;2024-03-02T13:21:04;14.30;99.90
46117;DHT22;32591;48.102;11.772;2024-03-02T13:23:33;14.30;99.90
46117;DHT22;32591;48.102;11.772;2024-03-02T13:26:01;14.50;99.90
46117;DHT22;32591;48.102;11.772;2024-03-02T13:28:29;14.50;99.90
46117;DHT22;32591;48.102;11.772;2024-03-02T13:30:59;14.40;99.90
46117;DHT22;32591;48.102;11.772;2024-03-02T13:33:28;14.60;99.90
46117;DHT22;32591;48.102;11.772;2024-03-02T13:35:58;14.80;99.90
46117;DHT22;32591;48.102;11.772;2024-03-02T13:38:26;15.00;99.90
46117;DHT22;32591;48.102;11.772;2024-03-02T13:40:54;14.80;99.90
46117;DHT22;32591;48.102;11.772;2024-03-02T13:43:22;14.70;99.90
46117;DHT22;32591;48.102;11.772;2024-03-02T13:45:51;14.50;99.90
46117;DHT22;32591;48.102;11.772;2024-03-02T13:48:21;14.40;99.90
46117;DHT22;32591;48.102;11.772;2024-03-02T13:50:49;14.60;99.90
46117;DHT22;32591;48.102;11.772;2024-03-02T13:53:18;14.80;99.90
46117;DHT22;32591;48.102;11.772;2024-03-02T13:55:46;14.90;99.90
46117;DHT22;32591;48.102;11.772;2024-03-02T13:58:14;15.00;99.90
46117;DHT22;32591;48.102;11.772;2024-03-02T14:00:44;15.20;99.90
46117;DHT22;32591;48.102;11.772;2024-03-02T14:03:13;15.40;99.90
46117;DHT22;32591;48.102;11.772;2024-03-02T14:05:43;15.50;99.90
46117;DHT22;32591;48.102;11.772;2024-03-02T14:08:13;15.40;99.90
46117;DHT22;32591;48.102;11.772;2024-03-02T14:10:41;15.30;99.90
46117;DHT22;32591;48.102;11.772;2024-03-02T14:13:09;15.30;99.90
46117;DHT22;32591;48.102;11.772;2024-03-02T14:15:37;15.40;99.90
46117;DHT22;32591;48.102;11.772;2024-03-02T14:18:06;15.50;99.90
46117;DHT22;32591;48.102;11.772;2024-03-02T14:20:36;15.50;99.90
46117;DHT22;32591;48.102;11.772;2024-03-02T14:23:06;15.50;99.90
46117;DHT22;32591;48.102;11.772;2024-03-02T14:25:34;15.60;99.90
46117;DHT22;32591;48.102;11.772;2024-03-02T14:28:02;15.70;99.90
46117;DHT22;32591;48.102;11.772;2024-03-02T14:30:51;15.80;99.90
46117;DHT22;32591;48.102;11.772;2024-03-02T14:33:19;15.80;99.90
46117;DHT22;32591;48.102;11.772;2024-03-02T14:35:48;15.80;99.90
46117;DHT22;32591;48.102;11.772;2024-03-02T14:38:17;15.80;99.90
46117;DHT22;32591;48.102;11.772;2024-03-02T14:40:45;15.80;99.90
46117;DHT22;32591;48.102;11.772;2024-03-02T14:43:13;15.70;99.90
46117;DHT22;32591;48.102;11.772;2024-03-02T14:45:43;15.60;99.90
46117;DHT22;32591;48.102;11.772;2024-03-02T14:48:11;15.60;99.90
46117;DHT22;32591;48.102;11.772;2024-03-02T14:50:40;15.60;99.90
46117;DHT22;32591;48.102;11.772;2024-03-02T14:53:08;15.50;99.90
46117;DHT22;32591;48.102;11.772;2024-03-02T14:55:37;15.50;99.90
46117;DHT22;32591;48.102;11.772;2024-03-02T14:58:05;15.30;99.90
46117;DHT22;32591;48.102;11.772;2024-03-02T15:00:35;15.20;99.90
46117;DHT22;32591;48.102;11.772;2024-03-02T15:03:03;15.20;99.90
46117;DHT22;32591;48.102;11.772;2024-03-02T15:05:34;15.20;99.90
46117;DHT22;32591;48.102;11.772;2024-03-02T15:08:02;15.20;99.90
46117;DHT22;32591;48.102;11.772;2024-03-02T15:10:31;15.20;99.90
46117;DHT22;32591;48.102;11.772;2024-03-02T15:13:01;15.30;99.90
46117;DHT22;32591;48.102;11.772;2024-03-02T15:15:30;15.50;99.90
46117;DHT22;32591;48.102;11.772;2024-03-02T15:17:59;15.60;99.90
46117;DHT22;32591;48.102;11.772;2024-03-02T15:20:29;15.60;99.90
46117;DHT22;32591;48.102;11.772;2024-03-02T15:22:57;15.40;99.90
46117;DHT22;32591;48.102;11.772;2024-03-02T15:25:25;15.30;99.90
46117;DHT22;32591;48.102;11.772;2024-03-02T15:27:53;15.20;99.90
46117;DHT22;32591;48.102;11.772;2024-03-02T15:30:23;15.30;99.90
46117;DHT22;32591;48.102;11.772;2024-03-02T15:32:51;15.20;99.90
46117;DHT22;32591;48.102;11.772;2024-03-02T15:35:19;14.90;99.90
46117;DHT22;32591;48.102;11.772;2024-03-02T15:37:47;14.80;99.90
46117;DHT22;32591;48.102;11.772;2024-03-02T15:40:15;15.00;99.90
46117;DHT22;32591;48.102;11.772;2024-03-02T15:42:44;15.10;99.90